Absaraka, North Dakota
Current Conditions -  °F | °C
As of 6:53 AM on Thursday 27 Nov 2014 (Local Time) from KFAR Reporting Station
Clear Clear  
Wind Chill: -24°   Ceiling: Unl
Heat Index: -24°   Visibility: 10mi
Dew Point: -28°   Wind: 0mph
Humidity: 74%   Direction: NA
Pressure: 30.53"   Gusts: NA
Location:  46.98°N, 97.39°W
Report Text: KFAR 271253Z 00000KT 10SM CLR M24/M28 A3053 RMK AO2 SLP370 T12441278
Loading
Personal Weather Stations






























Interactive Weather Map New forecast layout! Learn more

10-Day Weather Forecast

Advertisements
Track Severe Weather on mobile